Time;durP1;ratioP1;P1;durP2;ratioP2;P2;SDS_P1;SDS_P2;PMS_P1;PMS_P2;Temp;Humidity;BMP_temperature;BMP_pressure;BME280_temperature;BME280_humidity;BME280_pressure;Samples;Min_cycle;Max_cycle;Signal;HPM_P1;HPM_P2
2021/12/13 00:00:18;;;;;;;2.43;0.80;;;-6.40;88.50;;;;;;2216132;64;20085;-31
2021/12/13 00:02:45;;;;;;;3.40;1.20;;;-6.40;88.70;;;;;;2216270;64;20144;-37
2021/12/13 00:05:42;;;;;;;4.00;0.97;;;-6.30;87.70;;;;;;2216145;64;20115;-32
2021/12/13 00:08:17;;;;;;;2.47;1.10;;;-6.30;87.00;;;;;;2215477;64;20122;-36
2021/12/13 00:10:52;;;;;;;2.78;0.85;;;-6.20;86.50;;;;;;2215492;64;20093;-34
2021/12/13 00:13:23;;;;;;;2.20;0.80;;;-6.30;86.30;;;;;;2223751;64;20088;-33
2021/12/13 00:15:59;;;;;;;1.67;0.93;;;-6.20;85.40;;;;;;2223519;64;20226;-34
2021/12/13 00:18:31;;;;;;;3.37;0.70;;;-6.20;85.40;;;;;;2220262;64;20096;-33
2021/12/13 00:21:07;;;;;;;3.53;0.90;;;-6.20;84.50;;;;;;2223831;64;20101;-33
2021/12/13 00:23:45;;;;;;;1.27;0.53;;;-6.00;83.10;;;;;;2223609;64;20159;-31
2021/12/13 00:26:12;;;;;;;1.97;1.00;;;-6.00;82.70;;;;;;2223601;64;20151;-36
2021/12/13 00:28:40;;;;;;;1.70;0.63;;;-6.10;82.60;;;;;;2216930;64;20119;-31
2021/12/13 00:31:23;;;;;;;1.67;0.70;;;-6.10;81.70;;;;;;2223661;64;20123;-32
2021/12/13 00:33:56;;;;;;;2.67;1.10;;;-6.10;79.50;;;;;;2217512;64;20096;-31
2021/12/13 00:36:28;;;;;;;1.50;0.60;;;-6.10;78.80;;;;;;2223442;64;20603;-30
2021/12/13 00:39:01;;;;;;;2.03;0.73;;;-6.00;79.10;;;;;;2220397;64;20123;-31
2021/12/13 00:41:28;;;;;;;5.37;1.60;;;-6.00;85.00;;;;;;2223463;64;20449;-31
2021/12/13 00:44:07;;;;;;;7.03;1.53;;;-6.10;89.40;;;;;;2216879;64;20131;-30
2021/12/13 00:46:34;;;;;;;13.47;1.80;;;-6.20;89.60;;;;;;2223533;64;20095;-32
2021/12/13 00:49:01;;;;;;;4.63;1.83;;;-6.30;90.00;;;;;;2220486;64;20101;-31
2021/12/13 00:51:30;;;;;;;5.63;2.07;;;-6.40;89.80;;;;;;2217150;64;20104;-33
2021/12/13 00:53:59;;;;;;;6.13;1.80;;;-6.40;89.20;;;;;;2208174;64;20151;-32
2021/12/13 00:56:56;;;;;;;3.47;1.60;;;-6.50;88.90;;;;;;2208205;64;20208;-30
2021/12/13 00:59:36;;;;;;;9.80;2.00;;;-6.60;88.40;;;;;;2208260;64;20546;-31
2021/12/13 01:02:09;;;;;;;5.87;1.43;;;-6.70;88.40;;;;;;2208270;64;20102;-45
2021/12/13 01:04:57;;;;;;;3.00;1.10;;;-6.80;88.30;;;;;;2208317;64;20140;-31
2021/12/13 01:07:58;;;;;;;5.20;1.40;;;-6.90;88.20;;;;;;2208018;64;20545;-31
2021/12/13 01:10:40;;;;;;;5.87;1.57;;;-6.90;89.20;;;;;;2208295;64;20097;-31
2021/12/13 01:13:18;;;;;;;7.73;1.53;;;-6.80;88.00;;;;;;2208042;64;20577;-31
2021/12/13 01:15:50;;;;;;;5.50;1.23;;;-6.80;88.10;;;;;;2208393;64;20175;-31
2021/12/13 01:23:46;;;;;;;9.67;1.67;;;-6.70;88.30;;;;;;2204861;64;20370;-32
2021/12/13 01:28:47;;;;;;;4.13;1.37;;;-6.70;88.60;;;;;;2204889;64;20152;-31
2021/12/13 01:31:18;;;;;;;2.73;1.20;;;-6.80;88.20;;;;;;2212306;64;20572;-30
2021/12/13 01:33:46;;;;;;;4.20;1.90;;;-6.70;88.10;;;;;;2220147;64;20596;-32
2021/12/13 01:36:17;;;;;;;2.30;1.03;;;-6.70;87.80;;;;;;2220173;64;20119;-31
2021/12/13 01:38:47;;;;;;;1.63;1.10;;;-6.70;87.50;;;;;;2220245;64;20174;-32
2021/12/13 01:41:51;;;;;;;8.00;1.90;;;-6.70;87.80;;;;;;2220288;64;20100;-31
2021/12/13 01:44:25;;;;;;;5.27;1.30;;;-6.70;88.00;;;;;;2219264;64;20567;-31
2021/12/13 01:46:56;;;;;;;4.55;1.13;;;-6.70;88.20;;;;;;2218898;64;20085;-30
2021/12/13 01:49:30;;;;;;;6.60;1.70;;;-6.60;88.00;;;;;;2215840;64;20169;-31
2021/12/13 01:51:58;;;;;;;16.90;1.40;;;-6.60;88.50;;;;;;2215760;64;20097;-31
2021/12/13 01:54:25;;;;;;;2.97;1.20;;;-6.60;88.90;;;;;;2218994;64;20104;-31
2021/12/13 01:56:57;;;;;;;8.00;1.63;;;-6.60;89.40;;;;;;2215733;64;20182;-31
2021/12/13 02:02:37;;;;;;;5.10;1.67;;;-6.60;90.10;;;;;;2207960;64;20119;-31
2021/12/13 02:05:16;;;;;;;3.90;1.17;;;-6.60;90.20;;;;;;2199478;65;20091;-31
2021/12/13 02:07:49;;;;;;;5.13;1.00;;;-6.50;90.00;;;;;;2196481;65;20641;-31
2021/12/13 02:10:29;;;;;;;4.37;1.10;;;-6.60;90.30;;;;;;2196485;65;20155;-31
2021/12/13 02:13:14;;;;;;;2.50;1.07;;;-6.60;90.20;;;;;;2196585;65;20090;-30
2021/12/13 02:18:30;;;;;;;3.93;1.30;;;-6.60;90.40;;;;;;2196557;65;20631;-32
2021/12/13 02:21:06;;;;;;;4.43;1.27;;;-6.60;90.30;;;;;;2196579;65;20087;-31
2021/12/13 02:23:35;;;;;;;5.33;0.90;;;-6.60;90.10;;;;;;2196781;65;20177;-30
2021/12/13 02:26:01;;;;;;;4.73;1.23;;;-6.60;90.40;;;;;;2196631;65;20156;-34
2021/12/13 02:28:29;;;;;;;7.73;1.30;;;-6.60;90.10;;;;;;2196379;65;20109;-34
2021/12/13 02:30:59;;;;;;;2.17;1.00;;;-6.60;90.10;;;;;;2196560;65;20120;-31
2021/12/13 02:33:34;;;;;;;8.77;1.77;;;-6.60;89.30;;;;;;2201324;64;20537;-30
2021/12/13 02:36:21;;;;;;;1.50;0.90;;;-6.60;89.00;;;;;;2212024;64;20089;-32
2021/12/13 02:38:49;;;;;;;4.37;1.20;;;-6.50;82.50;;;;;;2215618;64;20097;-30
2021/12/13 02:41:18;;;;;;;4.40;1.30;;;-6.50;81.10;;;;;;2215915;64;20103;-31
2021/12/13 02:43:46;;;;;;;2.53;0.80;;;-6.50;81.30;;;;;;2215843;64;20085;-31
2021/12/13 02:46:13;;;;;;;2.27;0.30;;;-6.40;80.80;;;;;;2216186;64;20119;-30
2021/12/13 02:48:43;;;;;;;3.77;1.23;;;-6.40;80.90;;;;;;2219763;64;20189;-33
2021/12/13 02:51:14;;;;;;;2.50;1.23;;;-6.50;81.00;;;;;;2220081;64;20084;-48
2021/12/13 02:53:55;;;;;;;4.40;0.90;;;-6.40;81.80;;;;;;2220016;64;20114;-32
2021/12/13 02:56:27;;;;;;;1.37;0.50;;;-6.50;82.10;;;;;;2211013;64;20259;-30
2021/12/13 02:58:53;;;;;;;2.80;0.70;;;-6.50;82.00;;;;;;2211071;64;20165;-31
2021/12/13 03:01:27;;;;;;;7.40;0.80;;;-6.50;81.70;;;;;;2211039;64;20473;-32
2021/12/13 03:03:55;;;;;;;5.23;1.07;;;-6.50;81.80;;;;;;2211232;64;20548;-30
2021/12/13 03:06:26;;;;;;;3.00;1.20;;;-6.50;82.10;;;;;;2211729;64;20171;-31
2021/12/13 03:09:03;;;;;;;4.30;0.80;;;-6.60;82.40;;;;;;2211756;64;20097;-32
2021/12/13 03:11:32;;;;;;;2.37;0.60;;;-6.60;82.90;;;;;;2211817;64;20089;-32
2021/12/13 03:14:02;;;;;;;3.23;0.90;;;-6.60;83.10;;;;;;2211873;64;20103;-31
2021/12/13 03:16:32;;;;;;;7.00;0.90;;;-6.60;83.00;;;;;;2211780;64;20097;-31
2021/12/13 03:19:02;;;;;;;4.70;1.40;;;-6.70;83.00;;;;;;2205318;64;20165;-31
2021/12/13 03:22:07;;;;;;;5.50;0.70;;;-6.60;82.80;;;;;;2205423;64;20099;-31
2021/12/13 03:24:36;;;;;;;8.27;1.50;;;-6.60;83.10;;;;;;2207706;64;20094;-32
2021/12/13 03:27:45;;;;;;;1.20;0.80;;;-6.70;83.30;;;;;;2214613;64;20177;-31
2021/12/13 03:30:18;;;;;;;9.17;1.10;;;-6.60;83.10;;;;;;2200069;65;20098;-34
2021/12/13 03:33:03;;;;;;;1.40;0.80;;;-6.60;82.50;;;;;;2207145;64;20169;-33
2021/12/13 03:35:45;;;;;;;3.72;0.57;;;-6.60;81.70;;;;;;2211635;64;20091;-35
2021/12/13 03:38:16;;;;;;;5.83;1.13;;;-6.60;82.30;;;;;;2211540;64;20477;-49
2021/12/13 03:40:42;;;;;;;2.30;0.63;;;-6.60;82.20;;;;;;2211715;64;20446;-37
2021/12/13 03:43:14;;;;;;;5.93;1.13;;;-6.60;81.70;;;;;;2211849;64;20097;-33
2021/12/13 03:45:47;;;;;;;7.30;1.10;;;-6.60;82.20;;;;;;2211708;64;20090;-36
2021/12/13 03:48:17;;;;;;;1.80;0.57;;;-6.60;81.90;;;;;;2211702;64;20128;-36
2021/12/13 03:50:50;;;;;;;4.60;0.80;;;-6.60;81.60;;;;;;2211718;64;20077;-34
2021/12/13 03:53:19;;;;;;;7.80;0.77;;;-6.70;81.80;;;;;;2211625;64;20096;-30
2021/12/13 03:55:49;;;;;;;2.63;0.53;;;-6.60;81.80;;;;;;2211570;64;20100;-36
2021/12/13 03:58:18;;;;;;;5.27;0.80;;;-6.60;82.10;;;;;;2211783;64;20136;-32
2021/12/13 04:00:52;;;;;;;6.80;0.97;;;-6.60;80.40;;;;;;2214015;64;20159;-32
2021/12/13 04:03:18;;;;;;;9.57;0.87;;;-6.60;80.50;;;;;;2217291;64;20089;-34
2021/12/13 04:05:45;;;;;;;3.47;0.70;;;-6.60;80.20;;;;;;2220310;64;20616;-31
2021/12/13 04:08:12;;;;;;;4.47;0.60;;;-6.60;79.60;;;;;;2220478;64;20172;-35
2021/12/13 04:10:51;;;;;;;10.40;0.93;;;-6.60;79.40;;;;;;2220349;64;20092;-32
2021/12/13 04:13:22;;;;;;;2.70;0.60;;;-6.60;79.90;;;;;;2220414;64;20077;-31
2021/12/13 04:16:14;;;;;;;5.87;1.03;;;-6.60;79.20;;;;;;2220258;64;20562;-32
2021/12/13 04:21:34;;;;;;;1.13;0.40;;;-6.50;78.60;;;;;;2220300;64;20558;-31
2021/12/13 04:24:03;;;;;;;4.90;0.60;;;-6.50;79.30;;;;;;2220393;64;20100;-32
2021/12/13 04:26:29;;;;;;;1.00;0.50;;;-6.50;78.30;;;;;;2220360;64;20095;-32
2021/12/13 04:28:58;;;;;;;3.47;1.33;;;-6.50;78.20;;;;;;2220227;64;20453;-34
2021/12/13 04:31:27;;;;;;;5.80;0.87;;;-6.60;78.70;;;;;;2220374;64;20535;-33
2021/12/13 04:33:56;;;;;;;3.60;0.70;;;-6.60;78.60;;;;;;2220281;64;20096;-30
2021/12/13 04:36:29;;;;;;;10.90;0.63;;;-6.60;78.80;;;;;;2220190;64;20564;-32
2021/12/13 04:39:07;;;;;;;1.00;0.50;;;-6.60;79.40;;;;;;2220382;64;20097;-31
2021/12/13 04:41:45;;;;;;;4.47;0.63;;;-6.60;79.30;;;;;;2220337;64;20141;-35
2021/12/13 04:44:38;;;;;;;0.40;0.30;;;-6.60;79.50;;;;;;2211886;64;20604;-32
2021/12/13 04:47:09;;;;;;;5.20;0.90;;;-6.50;79.90;;;;;;2212593;64;20087;-31
2021/12/13 04:49:38;;;;;;;11.83;1.00;;;-6.50;80.70;;;;;;2215405;64;20100;-31
2021/12/13 04:52:11;;;;;;;5.00;1.00;;;-6.60;81.60;;;;;;2208948;64;20164;-33
2021/12/13 04:54:41;;;;;;;7.57;1.40;;;-6.60;83.60;;;;;;2212058;64;20093;-32
2021/12/13 04:57:08;;;;;;;10.07;1.50;;;-6.70;87.30;;;;;;2212114;64;20173;-31
2021/12/13 04:59:35;;;;;;;11.27;2.00;;;-6.70;88.80;;;;;;2212103;64;20615;-31
2021/12/13 05:02:04;;;;;;;9.33;1.27;;;-6.80;89.30;;;;;;2212170;64;20145;-30
2021/12/13 05:04:31;;;;;;;3.70;1.17;;;-6.80;89.90;;;;;;2211998;64;20085;-31
2021/12/13 05:06:59;;;;;;;5.27;1.03;;;-6.90;90.10;;;;;;2208911;64;20165;-31
2021/12/13 05:09:26;;;;;;;7.73;1.73;;;-6.90;90.30;;;;;;2212039;64;20608;-31
2021/12/13 05:12:03;;;;;;;7.50;1.70;;;-6.90;90.10;;;;;;2211934;64;20560;-32
2021/12/13 05:14:35;;;;;;;6.77;1.27;;;-6.90;90.30;;;;;;2212318;64;20607;-32
2021/12/13 05:17:26;;;;;;;5.53;1.50;;;-7.00;90.20;;;;;;2211828;64;20608;-32
2021/12/13 05:20:10;;;;;;;7.70;1.10;;;-6.90;90.00;;;;;;2211460;64;20116;-32
2021/12/13 05:22:58;;;;;;;7.03;1.43;;;-6.90;89.90;;;;;;2215355;64;20243;-31
2021/12/13 05:25:45;;;;;;;4.20;0.93;;;-6.90;90.00;;;;;;2204123;64;20191;-30
2021/12/13 05:28:19;;;;;;;10.43;1.20;;;-6.90;89.30;;;;;;2207188;64;20097;-30
2021/12/13 05:30:57;;;;;;;7.50;1.80;;;-6.70;89.30;;;;;;2207486;64;20086;-31
2021/12/13 05:33:24;;;;;;;3.37;1.50;;;-6.70;89.70;;;;;;2204511;64;20105;-31
2021/12/13 05:35:54;;;;;;;9.10;1.77;;;-6.40;88.70;;;;;;2207450;64;20553;-32
2021/12/13 05:38:29;;;;;;;3.77;1.53;;;-6.30;87.60;;;;;;2207399;64;20098;-42
2021/12/13 05:40:55;;;;;;;4.00;1.27;;;-6.20;86.60;;;;;;2204453;64;20078;-33
2021/12/13 05:43:22;;;;;;;8.70;1.30;;;-5.90;85.20;;;;;;2204138;64;20148;-30
2021/12/13 05:45:58;;;;;;;5.63;1.03;;;-5.60;83.60;;;;;;2204352;64;20096;-31
2021/12/13 05:48:49;;;;;;;11.40;3.33;;;-5.30;81.10;;;;;;2210108;64;20119;-30
2021/12/13 05:51:25;;;;;;;10.30;1.20;;;-5.10;79.10;;;;;;2213897;64;20123;-31
2021/12/13 05:54:01;;;;;;;4.13;1.13;;;-4.90;75.60;;;;;;2211801;64;20105;-31
2021/12/13 05:56:34;;;;;;;9.50;1.57;;;-4.40;73.20;;;;;;2211934;64;20100;-31
2021/12/13 05:59:21;;;;;;;12.53;2.30;;;-4.10;71.90;;;;;;2214984;64;20111;-31
2021/12/13 06:02:06;;;;;;;9.83;1.03;;;-4.00;70.50;;;;;;2215129;64;20070;-32
2021/12/13 06:04:56;;;;;;;7.35;2.20;;;-4.00;69.60;;;;;;2215627;64;20118;-32
2021/12/13 06:07:27;;;;;;;14.60;1.83;;;-4.20;70.90;;;;;;2212717;64;20642;-31
2021/12/13 06:09:57;;;;;;;2.97;1.17;;;-3.90;69.60;;;;;;2219028;64;20080;-32
2021/12/13 06:12:26;;;;;;;2.10;0.90;;;-3.20;66.80;;;;;;2218986;64;20103;-33
2021/12/13 06:14:53;;;;;;;1.63;0.90;;;-3.00;64.00;;;;;;2218833;64;20255;-33
2021/12/13 06:17:30;;;;;;;2.07;0.80;;;-2.90;63.60;;;;;;2219013;64;20115;-33
2021/12/13 06:19:58;;;;;;;10.47;0.60;;;-2.30;61.10;;;;;;2218954;64;20092;-31
2021/12/13 06:22:26;;;;;;;3.10;0.60;;;-2.40;60.90;;;;;;2218921;64;20193;-33
2021/12/13 06:25:04;;;;;;;5.80;0.80;;;-2.50;59.60;;;;;;2218785;64;20170;-32
2021/12/13 06:27:42;;;;;;;9.33;1.53;;;-2.50;60.70;;;;;;2215701;64;20081;-36
2021/12/13 06:30:19;;;;;;;2.83;0.90;;;-2.40;59.80;;;;;;2218940;64;20081;-35
2021/12/13 06:32:53;;;;;;;10.40;2.57;;;-2.30;59.20;;;;;;2215958;64;20080;-35
2021/12/13 06:35:48;;;;;;;3.15;0.77;;;-2.30;59.90;;;;;;2216920;64;20093;-31
2021/12/13 06:38:22;;;;;;;6.23;1.33;;;-2.20;59.50;;;;;;2220217;64;20519;-32
2021/12/13 06:40:56;;;;;;;9.23;1.02;;;-1.90;57.40;;;;;;2220574;64;20514;-31
2021/12/13 06:43:48;;;;;;;4.60;1.47;;;-2.10;58.30;;;;;;2220629;64;20089;-39
2021/12/13 06:46:24;;;;;;;9.57;1.77;;;-2.10;58.00;;;;;;2220193;64;20072;-30
2021/12/13 06:48:59;;;;;;;12.70;1.63;;;-2.30;58.60;;;;;;2220276;64;20106;-32
2021/12/13 06:51:47;;;;;;;;;;;-2.60;60.20;;;;;;2220709;64;20119;-30
2021/12/13 06:54:25;;;;;;;8.17;1.77;;;-3.00;61.70;;;;;;2220325;64;20045;-33
2021/12/13 06:57:04;;;;;;;8.73;2.10;;;-2.70;62.50;;;;;;2220514;64;20084;-30
2021/12/13 06:59:31;;;;;;;10.63;3.93;;;-2.50;59.60;;;;;;2220309;64;20233;-31
2021/12/13 07:02:08;;;;;;;4.53;0.63;;;-2.40;60.40;;;;;;2217059;64;20097;-34
2021/12/13 07:04:49;;;;;;;2.70;0.70;;;-2.10;58.10;;;;;;2220534;64;20169;-30
2021/12/13 07:07:15;;;;;;;5.77;0.80;;;-2.00;59.00;;;;;;2220273;64;20227;-31
2021/12/13 07:09:50;;;;;;;1.30;0.57;;;-1.50;57.60;;;;;;2223790;64;20107;-31
2021/12/13 07:12:16;;;;;;;5.72;1.98;;;-1.50;56.80;;;;;;2220587;64;20647;-32
2021/12/13 07:14:44;;;;;;;4.53;0.87;;;-1.50;57.60;;;;;;2220347;64;20089;-33
2021/12/13 07:17:31;;;;;;;19.90;2.50;;;-1.20;56.20;;;;;;2220581;64;20088;-30
2021/12/13 07:19:58;;;;;;;18.23;2.23;;;-1.10;56.00;;;;;;2223754;64;20087;-31
2021/12/13 07:22:27;;;;;;;6.57;1.40;;;-1.00;55.50;;;;;;2220462;64;20085;-37
2021/12/13 07:25:08;;;;;;;10.47;1.27;;;-1.00;53.60;;;;;;2223888;64;20107;-30
2021/12/13 07:27:40;;;;;;;17.97;2.00;;;-0.90;55.00;;;;;;2220324;64;20560;-30
2021/12/13 07:30:27;;;;;;;8.10;1.73;;;-1.00;56.00;;;;;;2223574;64;20492;-31
2021/12/13 07:33:03;;;;;;;6.13;1.30;;;-1.10;54.80;;;;;;2220477;64;20583;-30
2021/12/13 07:35:33;;;;;;;2.40;0.63;;;-1.10;54.70;;;;;;2223673;64;20176;-31
2021/12/13 07:38:07;;;;;;;8.70;1.80;;;-1.50;56.30;;;;;;2220442;64;20097;-30
2021/12/13 07:40:44;;;;;;;11.40;1.27;;;-2.00;58.00;;;;;;2220357;64;20139;-29
2021/12/13 07:43:14;;;;;;;14.50;2.60;;;-1.40;58.70;;;;;;2220309;64;20096;-30
2021/12/13 07:45:43;;;;;;;6.63;1.70;;;-1.50;57.20;;;;;;2220300;64;20518;-29
2021/12/13 07:48:13;;;;;;;7.53;1.50;;;-1.50;57.70;;;;;;2220483;64;20093;-30
2021/12/13 07:50:41;;;;;;;9.83;2.20;;;-1.30;56.80;;;;;;2223540;64;20144;-29
2021/12/13 07:53:11;;;;;;;8.37;2.40;;;-1.40;57.50;;;;;;2223665;64;20096;-30
2021/12/13 07:55:46;;;;;;;6.63;0.93;;;-1.00;56.70;;;;;;2223732;64;20174;-29
2021/12/13 07:58:15;;;;;;;8.07;1.80;;;-0.90;55.50;;;;;;2223537;64;20103;-30
2021/12/13 08:00:42;;;;;;;7.07;1.00;;;-1.10;56.20;;;;;;2220432;64;20085;-29
2021/12/13 08:03:14;;;;;;;8.97;1.73;;;-1.20;56.80;;;;;;2220234;64;20173;-32
2021/12/13 08:05:47;;;;;;;10.00;1.33;;;-1.60;57.90;;;;;;2223588;64;20100;-30
2021/12/13 08:08:20;;;;;;;3.93;1.23;;;-1.30;57.70;;;;;;2223508;64;20096;-38
2021/12/13 08:10:48;;;;;;;13.23;1.57;;;-1.60;57.90;;;;;;2223366;64;20537;-31
2021/12/13 08:13:30;;;;;;;4.67;1.67;;;-1.80;59.60;;;;;;2223522;64;20099;-35
2021/12/13 08:16:03;;;;;;;5.20;1.43;;;-2.30;61.40;;;;;;2223513;64;20495;-34
2021/12/13 08:18:38;;;;;;;5.17;1.80;;;-3.00;65.20;;;;;;2220289;64;20116;-32
2021/12/13 08:21:20;;;;;;;13.55;1.45;;;-2.30;62.20;;;;;;2223536;64;20080;-32
2021/12/13 08:23:55;;;;;;;16.57;1.83;;;-2.20;63.00;;;;;;2220179;64;20143;-31
2021/12/13 08:26:37;;;;;;;25.50;2.50;;;-1.80;61.70;;;;;;2223477;64;20085;-30
2021/12/13 08:29:27;;;;;;;7.00;1.20;;;-1.70;61.70;;;;;;2223225;64;20592;-30
2021/12/13 08:31:55;;;;;;;5.67;1.30;;;-1.70;61.70;;;;;;2220326;64;20140;-32
2021/12/13 08:34:36;;;;;;;12.43;1.60;;;-1.80;62.10;;;;;;2216910;64;20590;-32
2021/12/13 08:37:16;;;;;;;12.10;2.37;;;-1.80;62.80;;;;;;2223323;64;20476;-32
2021/12/13 08:39:43;;;;;;;21.17;1.97;;;-2.90;66.20;;;;;;2223503;64;20096;-30
2021/12/13 08:42:16;;;;;;;8.60;1.60;;;-2.90;68.90;;;;;;2223387;64;20213;-30
2021/12/13 08:45:07;;;;;;;6.70;2.03;;;-3.40;71.30;;;;;;2223376;64;20103;-30
2021/12/13 08:47:41;;;;;;;16.60;2.73;;;-3.60;72.60;;;;;;2218126;64;20077;-30
2021/12/13 08:50:17;;;;;;;4.03;1.83;;;-3.50;72.80;;;;;;2220255;64;20120;-35
2021/12/13 08:52:44;;;;;;;15.50;2.10;;;-3.00;70.10;;;;;;2220160;64;20095;-33
2021/12/13 08:55:11;;;;;;;9.30;1.30;;;-2.30;67.00;;;;;;2220337;64;20197;-32
2021/12/13 08:58:04;;;;;;;14.83;3.00;;;-2.20;64.90;;;;;;2220133;64;20104;-31
2021/12/13 09:00:32;;;;;;;13.30;2.50;;;-2.10;65.30;;;;;;2220107;64;20119;-40
2021/12/13 09:03:28;;;;;;;11.97;1.60;;;-2.00;65.30;;;;;;2211767;64;20132;-31
2021/12/13 09:05:57;;;;;;;13.32;2.20;;;-2.10;66.10;;;;;;2212050;64;20092;-30
2021/12/13 09:08:30;;;;;;;6.60;1.17;;;-2.00;64.00;;;;;;2208534;64;20593;-30
2021/12/13 09:11:02;;;;;;;8.47;1.63;;;-2.10;64.90;;;;;;2212134;64;20085;-32
2021/12/13 09:13:40;;;;;;;24.57;3.20;;;-1.90;65.30;;;;;;2212008;64;20171;-31
2021/12/13 09:16:07;;;;;;;11.40;1.73;;;-2.00;66.00;;;;;;2211979;64;20235;-34
2021/12/13 09:18:34;;;;;;;18.50;2.37;;;-1.70;64.80;;;;;;2211918;64;20655;-32
2021/12/13 09:21:01;;;;;;;5.20;1.17;;;-1.80;65.80;;;;;;2212094;64;20097;-31
2021/12/13 09:23:30;;;;;;;4.90;1.67;;;-1.70;65.50;;;;;;2208763;64;20160;-32
2021/12/13 09:26:09;;;;;;;3.27;1.00;;;-1.80;66.60;;;;;;2208740;64;20481;-32
2021/12/13 09:28:42;;;;;;;6.70;1.50;;;-1.80;65.80;;;;;;2211822;64;20093;-31
2021/12/13 09:31:19;;;;;;;27.57;3.93;;;-1.60;65.20;;;;;;2212053;64;20160;-31
2021/12/13 09:33:57;;;;;;;7.47;1.10;;;-1.60;65.80;;;;;;2214530;64;20095;-30
2021/12/13 09:36:26;;;;;;;8.43;1.63;;;-1.60;66.10;;;;;;2207864;64;20180;-30
2021/12/13 09:39:04;;;;;;;3.53;0.80;;;-1.60;65.00;;;;;;2208035;64;20150;-30
2021/12/13 09:41:33;;;;;;;2.00;1.37;;;-1.60;65.00;;;;;;2208300;64;20093;-32
2021/12/13 09:44:23;;;;;;;5.63;1.10;;;-1.40;64.60;;;;;;2208179;64;20097;-30
2021/12/13 09:47:11;;;;;;;2.13;0.80;;;-1.20;63.90;;;;;;2207380;64;20128;-31
2021/12/13 09:49:45;;;;;;;10.10;1.50;;;-1.40;64.90;;;;;;2203888;64;20108;-34
2021/12/13 09:52:13;;;;;;;12.53;1.67;;;-1.50;65.60;;;;;;2200147;65;20099;-31
2021/12/13 09:55:01;;;;;;;3.83;1.40;;;-1.10;65.50;;;;;;2203577;65;20104;-32
2021/12/13 09:57:56;;;;;;;11.73;2.67;;;-0.50;62.70;;;;;;2203317;65;20118;-29
2021/12/13 10:00:29;;;;;;;19.83;3.40;;;0.10;60.30;;;;;;2199633;65;20653;-30
2021/12/13 10:02:59;;;;;;;10.40;1.40;;;0.10;59.40;;;;;;2203597;65;20094;-31
2021/12/13 10:05:29;;;;;;;8.10;1.17;;;0.50;57.30;;;;;;2203482;65;20105;-31
2021/12/13 10:07:59;;;;;;;21.37;2.20;;;0.50;56.80;;;;;;2208035;64;20314;-39
2021/12/13 10:10:35;;;;;;;6.13;1.67;;;0.20;57.40;;;;;;2211727;64;20170;-31
2021/12/13 10:13:06;;;;;;;22.40;3.23;;;-0.10;59.60;;;;;;2211935;64;20073;-35
2021/12/13 10:15:41;;;;;;;5.33;1.00;;;-0.10;59.80;;;;;;2212114;64;20089;-32
2021/12/13 10:18:10;;;;;;;11.73;1.97;;;-0.50;61.50;;;;;;2207731;64;20085;-31
2021/12/13 10:20:41;;;;;;;5.13;1.00;;;-0.50;61.90;;;;;;2211254;64;20616;-32
2021/12/13 10:23:10;;;;;;;14.17;1.20;;;-0.70;62.60;;;;;;2211076;64;20108;-31
2021/12/13 10:25:39;;;;;;;5.17;1.00;;;-0.50;63.40;;;;;;2210950;64;20100;-33
2021/12/13 10:28:11;;;;;;;22.33;1.53;;;-0.70;62.70;;;;;;2210929;64;20094;-31
2021/12/13 10:30:41;;;;;;;12.23;2.00;;;-0.40;60.20;;;;;;2214260;64;20093;-31
2021/12/13 10:33:09;;;;;;;18.77;1.45;;;-0.40;61.90;;;;;;2214898;64;20600;-33
2021/12/13 10:35:40;;;;;;;11.13;1.73;;;-0.80;63.90;;;;;;2214856;64;20638;-47
2021/12/13 10:38:13;;;;;;;7.77;1.50;;;0.00;60.60;;;;;;2214809;64;20136;-33
2021/12/13 10:40:54;;;;;;;19.90;2.10;;;-0.10;59.60;;;;;;2214942;64;20634;-31
2021/12/13 10:43:23;;;;;;;9.73;1.27;;;0.20;55.10;;;;;;2214881;64;20489;-32
2021/12/13 10:46:07;;;;;;;4.57;0.80;;;-0.20;56.70;;;;;;2215065;64;20528;-32
2021/12/13 10:48:35;;;;;;;1.60;0.60;;;-0.40;57.10;;;;;;2218892;64;20541;-31
2021/12/13 10:51:06;;;;;;;9.57;1.40;;;-0.50;57.90;;;;;;2223046;64;20105;-32
2021/12/13 10:53:32;;;;;;;10.17;1.77;;;-0.70;61.40;;;;;;2219704;64;20491;-31
2021/12/13 10:56:03;;;;;;;22.03;3.13;;;-1.60;67.50;;;;;;2219805;64;20080;-32
2021/12/13 10:58:32;;;;;;;13.27;2.00;;;-1.80;70.00;;;;;;2219903;64;20101;-30
2021/12/13 11:01:21;;;;;;;14.87;2.50;;;-1.90;71.20;;;;;;2219715;64;20540;-33
2021/12/13 11:03:48;;;;;;;12.67;2.03;;;-2.10;72.80;;;;;;2219956;64;20096;-32
2021/12/13 11:06:15;;;;;;;9.97;1.30;;;-2.30;73.80;;;;;;2219940;64;20138;-31
2021/12/13 11:08:42;;;;;;;23.20;1.60;;;-2.50;75.30;;;;;;2219808;64;20092;-31
2021/12/13 11:11:22;;;;;;;16.50;1.63;;;-2.70;76.70;;;;;;2219773;64;20093;-34
2021/12/13 11:13:50;;;;;;;8.97;1.50;;;-2.50;75.30;;;;;;2219809;64;20092;-38
2021/12/13 11:16:23;;;;;;;10.43;1.27;;;-2.30;73.50;;;;;;2223156;64;20100;-32
2021/12/13 11:18:50;;;;;;;4.77;0.90;;;-2.10;67.60;;;;;;2219671;64;20516;-33
2021/12/13 11:21:23;;;;;;;5.30;1.33;;;-2.30;67.70;;;;;;2219881;64;20077;-32
2021/12/13 11:23:50;;;;;;;9.00;1.00;;;-2.20;66.80;;;;;;2218422;64;20089;-32
2021/12/13 11:26:20;;;;;;;9.10;1.07;;;-2.30;67.10;;;;;;2219250;64;20514;-32
2021/12/13 11:28:47;;;;;;;2.20;1.10;;;-2.30;67.00;;;;;;2219017;64;20107;-34
2021/12/13 11:31:56;;;;;;;12.60;1.33;;;-2.60;67.00;;;;;;2219403;64;20199;-31
2021/12/13 11:34:46;;;;;;;8.97;1.87;;;-2.50;67.80;;;;;;2213299;64;20108;-31
2021/12/13 11:37:26;;;;;;;20.93;2.17;;;-2.50;67.50;;;;;;2216044;64;20099;-37
2021/12/13 11:40:27;;;;;;;8.03;1.37;;;-2.50;67.00;;;;;;2215871;64;20610;-40
2021/12/13 11:43:18;;;;;;;24.50;1.93;;;-2.60;67.70;;;;;;2219420;64;20108;-32
2021/12/13 11:46:09;;;;;;;18.37;2.13;;;-2.60;67.90;;;;;;2216052;64;20084;-33
2021/12/13 11:49:07;;;;;;;12.17;1.43;;;-2.60;67.90;;;;;;2215392;64;20093;-33
2021/12/13 11:52:07;;;;;;;13.13;2.20;;;-2.40;67.50;;;;;;2208877;64;20491;-32
2021/12/13 11:54:54;;;;;;;19.13;1.30;;;-2.50;67.50;;;;;;2215466;64;20154;-33
2021/12/13 11:57:55;;;;;;;2.60;0.60;;;-2.50;67.10;;;;;;2215393;64;20101;-31
2021/12/13 12:00:59;;;;;;;9.47;1.83;;;-2.60;67.70;;;;;;2215466;64;20497;-31
2021/12/13 12:04:19;;;;;;;5.30;1.80;;;-2.50;67.40;;;;;;2219492;64;20461;-33
2021/12/13 12:07:05;;;;;;;9.13;1.00;;;-2.50;67.30;;;;;;2208235;64;20164;-31
2021/12/13 12:10:08;;;;;;;7.83;1.20;;;-2.70;67.80;;;;;;2215927;64;20131;-32
2021/12/13 12:13:05;;;;;;;11.53;1.80;;;-2.80;68.20;;;;;;2219681;64;20093;-31
2021/12/13 12:15:38;;;;;;;9.70;1.97;;;-2.90;69.80;;;;;;2216556;64;20165;-32
2021/12/13 12:18:08;;;;;;;3.67;0.80;;;-3.10;70.40;;;;;;2219499;64;20089;-32
2021/12/13 12:20:38;;;;;;;1.37;0.50;;;-3.00;70.60;;;;;;2219633;64;20089;-32
2021/12/13 12:23:06;;;;;;;1.57;0.60;;;-3.20;71.90;;;;;;2219543;64;20135;-32
2021/12/13 12:25:34;;;;;;;4.33;1.10;;;-3.10;71.70;;;;;;2216337;64;20085;-32
2021/12/13 12:28:11;;;;;;;10.17;1.10;;;-3.30;72.60;;;;;;2216363;64;20132;-32
2021/12/13 12:30:40;;;;;;;28.90;2.27;;;-3.40;74.00;;;;;;2216503;64;20096;-33
2021/12/13 12:33:10;;;;;;;11.90;1.83;;;-3.50;74.70;;;;;;2216307;64;20115;-32
2021/12/13 12:35:43;;;;;;;6.67;1.33;;;-3.70;75.70;;;;;;2216216;64;20088;-32
2021/12/13 12:38:10;;;;;;;9.43;1.60;;;-3.70;76.10;;;;;;2216507;64;20100;-34
2021/12/13 12:41:06;;;;;;;5.50;1.13;;;-3.80;76.10;;;;;;2219654;64;20108;-33
2021/12/13 12:43:36;;;;;;;3.60;1.47;;;-4.00;77.30;;;;;;2208565;64;20600;-33
2021/12/13 12:46:08;;;;;;;6.50;1.20;;;-4.00;77.80;;;;;;2216229;64;20108;-34
2021/12/13 12:48:49;;;;;;;3.63;0.97;;;-4.10;78.60;;;;;;2219993;64;20599;-34
2021/12/13 12:51:31;;;;;;;3.00;1.07;;;-4.10;79.00;;;;;;2220166;64;20081;-35
2021/12/13 12:54:09;;;;;;;2.53;0.83;;;-4.20;79.60;;;;;;2220216;64;20177;-33
2021/12/13 12:56:56;;;;;;;3.73;0.53;;;-4.20;80.20;;;;;;2220096;64;20471;-32
2021/12/13 12:59:31;;;;;;;2.20;0.77;;;-4.20;80.50;;;;;;2220066;64;20088;-36
2021/12/13 13:01:59;;;;;;;10.20;1.27;;;-4.20;80.70;;;;;;2220225;64;20089;-33
2021/12/13 13:04:34;;;;;;;2.07;0.40;;;-4.30;81.10;;;;;;2220176;64;20628;-31
2021/12/13 13:07:05;;;;;;;3.80;0.87;;;-4.30;80.70;;;;;;2208093;64;20086;-31
2021/12/13 13:09:53;;;;;;;12.73;2.03;;;-4.30;81.20;;;;;;2207704;64;20112;-31
2021/12/13 13:12:29;;;;;;;2.13;0.47;;;-4.30;80.90;;;;;;2207980;64;20193;-32
2021/12/13 13:15:26;;;;;;;2.90;0.27;;;-4.30;81.20;;;;;;2207950;64;20097;-32
2021/12/13 13:18:20;;;;;;;5.10;0.70;;;-4.20;80.80;;;;;;2211319;64;20100;-33
2021/12/13 13:20:51;;;;;;;3.17;0.70;;;-4.20;79.60;;;;;;2204560;64;20089;-34
2021/12/13 13:23:19;;;;;;;4.30;0.97;;;-4.20;79.60;;;;;;2208005;64;20605;-34
2021/12/13 13:25:59;;;;;;;9.93;2.13;;;-4.30;80.30;;;;;;2208095;64;20074;-33
2021/12/13 13:28:29;;;;;;;3.07;0.50;;;-4.30;80.50;;;;;;2211233;64;20096;-34
2021/12/13 13:31:17;;;;;;;8.33;0.87;;;-4.30;80.30;;;;;;2208258;64;20092;-37
2021/12/13 13:33:50;;;;;;;7.40;0.60;;;-4.40;79.50;;;;;;2208149;64;20086;-33
2021/12/13 13:36:26;;;;;;;5.57;0.50;;;-4.40;79.70;;;;;;2208119;64;20235;-35
2021/12/13 13:38:54;;;;;;;9.90;1.40;;;-4.40;78.40;;;;;;2217453;64;20093;-32
2021/12/13 13:41:21;;;;;;;2.37;0.57;;;-4.40;78.00;;;;;;2220154;64;20519;-34
2021/12/13 13:43:49;;;;;;;1.53;0.50;;;-4.40;78.20;;;;;;2219794;64;20182;-33